Allison, Colorado
Current Conditions -  °F | °C
As of 11:53 AM on Friday 24 Oct 2014 (Local Time) from KDRO Reporting Station
Clear Clear  
Wind Chill: 62°   Ceiling: Unl
Heat Index: 62°   Visibility: 10mi
Dew Point: 31°   Wind: 5mph
Humidity: 31%   Direction: 170°S
Pressure: 30.4"   Gusts: NA
Location:  37.0891°N, 107.649°W
Report Text: KDRO 241753Z AUTO 17004KT 10SM CLR 17/M01 A3040 RMK AO2 SLP251 60000 T01671006 10167 20000 58002
Loading
Personal Weather Stations






























Interactive Weather Map
Tropical Storm Tracking
New forecast layout! Learn more

10-Day Weather Forecast

Advertisements
Track Severe Weather on mobile